createdAt,value
2018-10-21T00:02:35.776Z,72.80
2018-10-21T00:05:26.105Z,72.96
2018-10-21T00:08:16.670Z,73.13
2018-10-21T00:11:07.063Z,73.32
2018-10-21T00:13:57.404Z,73.43
2018-10-21T00:16:47.957Z,73.58
2018-10-21T00:22:47.308Z,73.69
2018-10-21T00:25:37.684Z,73.72
2018-10-21T00:28:28.394Z,73.58
2018-10-21T00:31:18.737Z,73.59
2018-10-21T00:34:21.915Z,73.56
2018-10-21T00:36:59.801Z,73.66
2018-10-21T00:39:48.196Z,73.93
2018-10-21T00:42:38.544Z,73.98
2018-10-21T00:45:28.946Z,74.10
2018-10-21T00:51:28.739Z,74.18
2018-10-21T00:57:41.873Z,74.01
2018-10-21T01:00:32.981Z,74.10
2018-10-21T01:03:23.289Z,74.16
2018-10-21T01:09:28.893Z,74.12
2018-10-21T01:12:19.239Z,74.02
2018-10-21T01:15:11.087Z,74.00
2018-10-21T01:18:14.103Z,74.18
2018-10-21T01:20:52.676Z,74.30
2018-10-21T01:23:44.446Z,74.27
2018-10-21T01:26:53.453Z,74.26
2018-10-21T01:30:02.408Z,74.23
2018-10-21T01:32:53.031Z,74.20
2018-10-21T01:36:02.542Z,74.46
2018-10-21T01:38:53.155Z,74.63
2018-10-21T01:42:12.535Z,74.71
2018-10-21T01:44:34.487Z,74.53
2018-10-21T01:47:25.271Z,74.44
2018-10-21T01:50:16.165Z,74.37
2018-10-21T01:53:07.702Z,74.36
2018-10-21T01:55:58.280Z,74.33
2018-10-21T02:01:42.662Z,74.27
2018-10-21T02:04:32.997Z,74.50
2018-10-21T02:07:23.357Z,75.05
2018-10-21T02:10:25.416Z,75.26
2018-10-21T02:13:04.651Z,75.44
2018-10-21T02:15:55.004Z,75.25
2018-10-21T02:21:40.968Z,74.76
2018-10-21T02:24:31.307Z,74.68
2018-10-21T02:27:22.150Z,74.57
2018-10-21T02:30:14.649Z,74.44
2018-10-21T02:33:05.096Z,74.44
2018-10-21T02:35:55.880Z,74.49
2018-10-21T02:38:46.229Z,74.60
2018-10-21T02:41:59.392Z,74.61
2018-10-21T02:44:49.790Z,74.59
2018-10-21T02:47:40.247Z,74.39
2018-10-21T02:50:30.907Z,74.53
2018-10-21T02:53:21.274Z,74.97
2018-10-21T02:56:12.561Z,75.22
2018-10-21T02:59:03.470Z,75.28
2018-10-21T03:01:53.866Z,75.28
2018-10-21T03:04:44.621Z,75.41
2018-10-21T03:07:35.364Z,75.45
2018-10-21T03:10:25.791Z,75.20
2018-10-21T03:13:16.100Z,75.65
2018-10-21T03:16:06.613Z,75.77
2018-10-21T03:21:50.509Z,75.87
2018-10-21T03:24:40.833Z,75.88
2018-10-21T03:27:31.198Z,75.90
2018-10-21T03:30:22.130Z,75.73
2018-10-21T03:33:14.364Z,75.63
2018-10-21T03:38:57.425Z,75.69
2018-10-21T03:41:47.771Z,75.83
2018-10-21T03:44:38.467Z,75.76
2018-10-21T03:47:29.186Z,75.73
2018-10-21T03:50:20.598Z,75.77
2018-10-21T03:53:11.308Z,76.18
2018-10-21T03:55:59.601Z,76.50
2018-10-21T03:58:50.564Z,76.46
2018-10-21T04:01:41.543Z,76.21
2018-10-21T04:04:31.857Z,75.98
2018-10-21T04:07:22.272Z,76.13
2018-10-21T04:10:12.920Z,76.01
2018-10-21T04:13:03.206Z,75.82
2018-10-21T04:15:53.955Z,75.57
2018-10-21T04:18:44.314Z,75.41
2018-10-21T04:21:36.026Z,75.61
2018-10-21T04:24:27.059Z,75.94
2018-10-21T04:27:17.448Z,76.00
2018-10-21T04:30:08.868Z,76.04
2018-10-21T04:33:17.822Z,76.14
2018-10-21T04:36:08.530Z,76.20
2018-10-21T04:39:51.898Z,76.45
2018-10-21T04:42:26.532Z,76.40
2018-10-21T04:45:36.024Z,76.18
2018-10-21T04:48:26.447Z,76.08
2018-10-21T04:51:17.492Z,76.03
2018-10-21T04:54:08.728Z,76.00
2018-10-21T05:00:28.868Z,75.65
2018-10-21T05:03:19.411Z,75.68
2018-10-21T05:06:09.773Z,75.53
2018-10-21T05:09:00.874Z,75.64
2018-10-21T05:11:51.269Z,75.64
2018-10-21T05:15:00.726Z,75.77
2018-10-21T05:17:51.285Z,75.81
2018-10-21T05:20:42.276Z,75.70
2018-10-21T05:23:32.653Z,75.88
2018-10-21T05:26:24.105Z,76.51
2018-10-21T05:29:14.681Z,76.55
2018-10-21T05:32:05.688Z,76.48
2018-10-21T05:34:56.051Z,76.15
2018-10-21T05:37:47.230Z,75.94
2018-10-21T05:40:38.300Z,75.92
2018-10-21T05:43:28.627Z,76.20
2018-10-21T05:46:56.983Z,76.57
2018-10-21T05:50:06.304Z,76.81
2018-10-21T05:52:57.241Z,76.96
2018-10-21T05:55:48.049Z,76.92
2018-10-21T05:58:51.798Z,76.64
2018-10-21T06:01:29.153Z,76.50
2018-10-21T06:04:20.446Z,76.44
2018-10-21T06:07:11.103Z,76.55
2018-10-21T06:13:16.392Z,76.65
2018-10-21T06:16:06.831Z,76.60
2018-10-21T06:19:02.261Z,76.59
2018-10-21T06:22:05.988Z,76.61
2018-10-21T06:24:43.449Z,76.43
2018-10-21T06:27:33.817Z,76.38
2018-10-21T06:30:24.200Z,76.66
2018-10-21T06:36:07.673Z,76.86
2018-10-21T06:41:54.423Z,76.49
2018-10-21T06:47:33.124Z,76.42
2018-10-21T06:50:40.976Z,76.74
2018-10-21T06:53:28.325Z,76.91
2018-10-21T06:56:19.431Z,76.89
2018-10-21T06:59:10.161Z,76.95
2018-10-21T07:02:00.485Z,76.70
2018-10-21T07:04:50.874Z,76.53
2018-10-21T07:07:41.226Z,76.40
2018-10-21T07:10:30.019Z,76.50
2018-10-21T07:13:20.380Z,76.58
2018-10-21T07:16:11.365Z,76.53
2018-10-21T07:18:44.309Z,76.31
2018-10-21T07:21:34.718Z,76.29
2018-10-21T07:24:25.159Z,76.20
2018-10-21T07:30:12.353Z,75.84
2018-10-21T07:33:03.640Z,75.45
2018-10-21T07:35:53.982Z,75.39
2018-10-21T07:38:44.364Z,75.18
2018-10-21T07:41:53.586Z,74.78
2018-10-21T07:44:43.958Z,74.34
2018-10-21T07:47:34.329Z,73.89
2018-10-21T07:53:34.492Z,73.57
2018-10-21T08:02:49.953Z,73.75
2018-10-21T08:06:18.833Z,73.45
2018-10-21T08:09:29.817Z,73.21
2018-10-21T08:12:21.811Z,72.99
2018-10-21T08:15:32.339Z,72.65
2018-10-21T08:24:54.913Z,71.85
2018-10-21T08:31:34.112Z,72.26
2018-10-21T08:40:38.342Z,71.66
2018-10-21T08:43:30.364Z,71.21
2018-10-21T08:46:40.748Z,71.01
2018-10-21T08:49:33.668Z,70.55
2018-10-21T08:52:25.832Z,70.20
2018-10-21T08:58:33.630Z,69.23
2018-10-21T09:01:25.601Z,68.80
2018-10-21T09:04:17.622Z,68.40
2018-10-21T09:10:24.121Z,67.64
2018-10-21T09:16:26.150Z,67.14
2018-10-21T09:19:18.670Z,66.82
2018-10-21T09:22:10.631Z,66.86
2018-10-21T09:28:29.782Z,66.12
2018-10-21T09:41:07.828Z,64.66
2018-10-21T09:44:19.085Z,63.50
2018-10-21T09:47:09.571Z,63.49
2018-10-21T09:50:01.706Z,62.88
2018-10-21T09:52:54.071Z,62.48
2018-10-21T09:55:44.495Z,61.56
2018-10-21T09:58:35.016Z,61.06
2018-10-21T10:01:43.984Z,61.06
2018-10-21T10:04:34.365Z,60.83
2018-10-21T10:07:25.085Z,59.95
2018-10-21T10:10:15.725Z,58.54
2018-10-21T10:13:06.315Z,58.04
2018-10-21T10:19:07.621Z,57.24
2018-10-21T10:21:57.984Z,56.83
2018-10-21T10:24:48.297Z,56.97
2018-10-21T10:27:38.743Z,55.33
2018-10-21T10:30:47.720Z,54.99
2018-10-21T10:36:34.677Z,54.75
2018-10-21T10:42:18.573Z,54.84
2018-10-21T10:45:09.394Z,54.53
2018-10-21T10:47:59.810Z,53.79
2018-10-21T10:50:50.198Z,53.35
2018-10-21T10:53:37.535Z,53.50
2018-10-21T10:56:21.032Z,53.71
2018-10-21T10:59:11.372Z,53.54
2018-10-21T11:02:01.747Z,53.24
2018-10-21T11:04:52.086Z,53.35
2018-10-21T11:07:42.496Z,53.28
2018-10-21T11:13:22.500Z,51.29
2018-10-21T11:19:29.412Z,50.93
2018-10-21T11:22:20.363Z,51.37
2018-10-21T11:25:29.601Z,51.72
2018-10-21T11:28:20.370Z,52.06
2018-10-21T11:31:10.861Z,52.08
2018-10-21T11:34:02.054Z,51.47
2018-10-21T11:36:52.368Z,51.37
2018-10-21T11:39:42.804Z,50.44
2018-10-21T11:42:30.300Z,51.10
2018-10-21T11:45:20.751Z,51.06
2018-10-21T11:48:11.319Z,51.28
2018-10-21T11:53:52.722Z,50.15
2018-10-21T11:56:43.525Z,49.77
2018-10-21T11:59:34.001Z,50.10
2018-10-21T12:02:36.771Z,50.05
2018-10-21T12:05:14.907Z,50.33
2018-10-21T12:08:05.539Z,50.08
2018-10-21T12:10:55.981Z,49.88
2018-10-21T12:13:46.406Z,50.06
2018-10-21T12:16:37.209Z,49.69
2018-10-21T12:19:28.398Z,50.00
2018-10-21T12:22:18.869Z,50.29
2018-10-21T12:25:09.491Z,49.79
2018-10-21T12:28:00.188Z,49.98
2018-10-21T12:31:10.020Z,50.32
2018-10-21T12:34:00.785Z,50.43
2018-10-21T12:36:51.481Z,50.00
2018-10-21T12:45:52.361Z,49.68
2018-10-21T12:48:43.369Z,49.85
2018-10-21T12:51:31.690Z,50.00
2018-10-21T12:54:22.771Z,50.02
2018-10-21T12:57:13.632Z,50.04
2018-10-21T13:00:04.224Z,49.89
2018-10-21T13:02:54.933Z,49.30
2018-10-21T13:05:45.505Z,49.11
2018-10-21T13:08:44.696Z,49.36
2018-10-21T13:14:50.237Z,48.85
2018-10-21T13:17:59.591Z,49.11
2018-10-21T13:20:50.741Z,49.04
2018-10-21T13:23:41.100Z,49.21
2018-10-21T13:26:31.822Z,48.99
2018-10-21T13:29:22.165Z,48.51
2018-10-21T13:32:12.585Z,48.91
2018-10-21T13:35:02.912Z,49.17
2018-10-21T13:41:08.095Z,48.71
2018-10-21T13:47:26.585Z,48.70
2018-10-21T13:50:16.947Z,49.01
2018-10-21T13:56:16.740Z,49.17
2018-10-21T13:59:07.267Z,49.26
2018-10-21T14:01:57.598Z,49.04
2018-10-21T14:05:08.857Z,48.30
2018-10-21T14:07:59.619Z,47.55
2018-10-21T14:10:50.447Z,46.86
2018-10-21T14:13:41.323Z,47.40
2018-10-21T14:16:33.175Z,47.11
2018-10-21T14:19:23.315Z,46.55
2018-10-21T14:22:13.748Z,46.05
2018-10-21T14:25:23.209Z,45.82
2018-10-21T14:28:13.687Z,45.18
2018-10-21T14:31:04.171Z,45.75
2018-10-21T14:37:03.851Z,45.17
2018-10-21T14:40:14.362Z,45.07
2018-10-21T14:43:04.724Z,46.38
2018-10-21T14:46:14.591Z,46.46
2018-10-21T14:49:23.997Z,46.26
2018-10-21T14:55:11.137Z,46.42
2018-10-21T14:57:58.376Z,47.08
2018-10-21T15:01:08.256Z,47.56
2018-10-21T15:03:59.494Z,46.85
2018-10-21T15:06:50.135Z,45.83
2018-10-21T15:09:40.470Z,46.50
2018-10-21T15:12:31.069Z,46.68
2018-10-21T15:15:21.417Z,47.18
2018-10-21T15:18:13.088Z,47.76
2018-10-21T15:21:03.619Z,47.47
2018-10-21T15:24:16.392Z,48.43
2018-10-21T15:27:06.815Z,49.17
2018-10-21T15:29:57.187Z,49.83
2018-10-21T15:32:59.326Z,50.25
2018-10-21T15:35:38.386Z,50.40
2018-10-21T15:38:28.730Z,50.61
2018-10-21T15:41:19.686Z,51.12
2018-10-21T15:44:21.823Z,51.11
2018-10-21T15:47:00.611Z,51.31
2018-10-21T15:49:51.275Z,51.69
2018-10-21T15:52:41.634Z,52.11
2018-10-21T15:55:31.981Z,52.56
2018-10-21T15:58:23.071Z,52.82
2018-10-21T16:01:13.421Z,52.84
2018-10-21T16:04:03.908Z,52.87
2018-10-21T16:06:54.456Z,52.93
2018-10-21T16:09:44.864Z,53.06
2018-10-21T16:12:35.430Z,53.36
2018-10-21T16:15:25.828Z,53.79
2018-10-21T16:18:16.170Z,53.72
2018-10-21T16:21:07.141Z,54.06
2018-10-21T16:23:57.487Z,54.54
2018-10-21T16:29:40.113Z,55.26
2018-10-21T16:32:30.518Z,55.73
2018-10-21T16:35:20.806Z,56.09
2018-10-21T16:38:10.671Z,56.49
2018-10-21T16:41:37.760Z,56.79
2018-10-21T16:44:28.091Z,57.06
2018-10-21T16:47:18.515Z,57.39
2018-10-21T16:53:03.037Z,57.48
2018-10-21T16:55:51.545Z,57.47
2018-10-21T16:58:41.914Z,57.53
2018-10-21T17:01:32.256Z,57.63
2018-10-21T17:04:22.642Z,57.95
2018-10-21T17:10:10.103Z,58.18
2018-10-21T17:13:00.639Z,58.33
2018-10-21T17:15:51.465Z,58.63
2018-10-21T17:18:42.433Z,59.07
2018-10-21T17:24:20.938Z,59.46
2018-10-21T17:27:11.265Z,59.49
2018-10-21T17:32:53.517Z,60.11
2018-10-21T17:35:43.888Z,60.42
2018-10-21T17:38:34.284Z,60.50
2018-10-21T17:41:24.812Z,60.33
2018-10-21T17:44:15.395Z,60.28
2018-10-21T17:47:05.786Z,60.55
2018-10-21T17:53:32.566Z,61.04
2018-10-21T17:56:23.104Z,60.98
2018-10-21T17:59:13.584Z,61.04
2018-10-21T18:02:03.979Z,61.34
2018-10-21T18:04:54.824Z,61.74
2018-10-21T18:07:45.544Z,62.15
2018-10-21T18:13:26.295Z,62.53
2018-10-21T18:16:17.252Z,62.62
2018-10-21T18:19:08.520Z,62.54
2018-10-21T18:22:12.835Z,62.42
2018-10-21T18:24:49.327Z,62.42
2018-10-21T18:27:40.114Z,62.79
2018-10-21T18:30:31.222Z,63.10
2018-10-21T18:36:55.057Z,63.48
2018-10-21T18:39:45.436Z,63.80
2018-10-21T18:42:35.868Z,64.04
2018-10-21T18:45:26.304Z,64.22
2018-10-21T18:48:16.803Z,64.27
2018-10-21T18:51:07.588Z,64.27
2018-10-21T18:53:58.219Z,64.28
2018-10-21T18:56:48.684Z,64.38
2018-10-21T18:59:39.520Z,64.47
2018-10-21T19:02:48.938Z,64.56
2018-10-21T19:05:40.175Z,64.62
2018-10-21T19:08:30.575Z,64.78
2018-10-21T19:11:21.493Z,65.14
2018-10-21T19:14:11.871Z,65.37
2018-10-21T19:17:02.801Z,65.43
2018-10-21T19:22:48.785Z,65.54
2018-10-21T19:25:39.705Z,65.60
2018-10-21T19:28:30.507Z,65.74
2018-10-21T19:31:21.371Z,65.83
2018-10-21T19:34:12.027Z,66.12
2018-10-21T19:37:02.490Z,66.74
2018-10-21T19:39:52.850Z,66.83
2018-10-21T19:42:43.957Z,66.37
2018-10-21T19:45:34.819Z,66.42
2018-10-21T19:48:25.190Z,66.41
2018-10-21T19:51:15.550Z,66.33
2018-10-21T19:54:06.303Z,66.53
2018-10-21T19:56:56.729Z,66.67
2018-10-21T19:59:47.146Z,66.89
2018-10-21T20:02:37.747Z,67.11
2018-10-21T20:05:28.126Z,67.34
2018-10-21T20:08:38.127Z,67.23
2018-10-21T20:14:23.792Z,67.44
2018-10-21T20:17:14.542Z,67.98
2018-10-21T20:20:05.214Z,68.37
2018-10-21T20:22:56.364Z,68.54
2018-10-21T20:25:46.848Z,68.48
2018-10-21T20:28:37.490Z,68.16
2018-10-21T20:31:27.866Z,67.75
2018-10-21T20:34:18.301Z,67.56
2018-10-21T20:37:09.956Z,67.54
2018-10-21T20:40:00.399Z,67.50
2018-10-21T20:43:09.688Z,67.61
2018-10-21T20:46:00.479Z,67.96
2018-10-21T20:48:51.726Z,68.41
2018-10-21T20:51:42.533Z,68.24
2018-10-21T20:54:51.378Z,68.17
2018-10-21T20:57:41.757Z,68.34
2018-10-21T21:00:32.479Z,68.59
2018-10-21T21:03:22.832Z,68.50
2018-10-21T21:06:13.236Z,68.69
2018-10-21T21:11:56.894Z,68.85
2018-10-21T21:14:47.284Z,68.85
2018-10-21T21:18:11.396Z,68.82
2018-10-21T21:20:28.273Z,68.86
2018-10-21T21:23:19.379Z,68.83
2018-10-21T21:26:10.743Z,68.95
2018-10-21T21:29:01.145Z,69.33
2018-10-21T21:32:06.512Z,69.58
2018-10-21T21:34:42.350Z,69.77
2018-10-21T21:37:33.011Z,69.99
2018-10-21T21:40:23.652Z,70.35
2018-10-21T21:43:14.018Z,70.40
2018-10-21T21:46:04.834Z,70.09
2018-10-21T21:55:05.916Z,69.32
2018-10-21T21:57:56.294Z,69.37
2018-10-21T22:00:46.664Z,69.42
2018-10-21T22:03:37.045Z,69.56
2018-10-21T22:06:27.442Z,69.82
2018-10-21T22:09:18.449Z,70.00
2018-10-21T22:12:09.239Z,70.19
2018-10-21T22:17:55.643Z,70.31
2018-10-21T22:20:45.982Z,70.52
2018-10-21T22:23:33.339Z,70.78
2018-10-21T22:26:35.746Z,70.96
2018-10-21T22:32:17.277Z,70.82
2018-10-21T22:34:55.341Z,70.83
2018-10-21T22:37:45.691Z,70.91
2018-10-21T22:40:36.412Z,71.13
2018-10-21T22:43:27.101Z,71.87
2018-10-21T22:46:17.480Z,72.16
2018-10-21T22:52:03.926Z,71.70
2018-10-21T22:55:06.517Z,71.41
2018-10-21T22:57:44.863Z,71.29
2018-10-21T23:00:35.527Z,71.16
2018-10-21T23:03:26.418Z,71.02
2018-10-21T23:06:17.289Z,70.76
2018-10-21T23:09:10.754Z,70.50
2018-10-21T23:12:01.122Z,70.34
2018-10-21T23:14:51.784Z,70.24
2018-10-21T23:17:42.128Z,70.30
2018-10-21T23:23:29.021Z,70.20
2018-10-21T23:26:31.761Z,70.09
2018-10-21T23:29:10.652Z,70.01
2018-10-21T23:32:01.216Z,69.96
2018-10-21T23:34:51.985Z,70.23
2018-10-21T23:37:42.353Z,70.54
2018-10-21T23:40:32.967Z,71.36
2018-10-21T23:43:20.322Z,71.54
2018-10-21T23:46:11.620Z,71.17
2018-10-21T23:49:21.056Z,70.90
2018-10-21T23:52:11.517Z,70.76
2018-10-21T23:55:02.362Z,70.83
2018-10-21T23:57:53.222Z,70.76
